createdAt,value
2018-09-09T00:00:30.018Z,23.4
2018-09-09T00:01:35.170Z,23.4
2018-09-09T00:02:40.111Z,23.4
2018-09-09T00:03:45.263Z,23.4
2018-09-09T00:04:50.126Z,23.4
2018-09-09T00:05:54.704Z,23.4
2018-09-09T00:07:00.129Z,23.4
2018-09-09T00:08:04.993Z,23.4
2018-09-09T00:09:09.879Z,23.4
2018-09-09T00:10:14.992Z,23.4
2018-09-09T00:11:20.161Z,23.4
2018-09-09T00:12:25.402Z,23.4
2018-09-09T00:13:31.386Z,23.4
2018-09-09T00:14:35.869Z,23.4
2018-09-09T00:15:41.079Z,23.4
2018-09-09T00:16:45.950Z,23.4
2018-09-09T00:17:51.095Z,23.4
2018-09-09T00:18:55.754Z,23.4
2018-09-09T00:20:00.107Z,23.4
2018-09-09T00:21:04.970Z,23.4
2018-09-09T00:22:10.584Z,23.4
2018-09-09T00:23:15.478Z,23.4
2018-09-09T00:24:19.768Z,23.4
2018-09-09T00:25:25.940Z,23.4
2018-09-09T00:26:31.391Z,23.4
2018-09-09T00:27:36.861Z,23.4
2018-09-09T00:28:41.535Z,23.4
2018-09-09T00:29:46.984Z,23.4
2018-09-09T00:30:52.830Z,23.4
2018-09-09T00:31:58.305Z,23.4
2018-09-09T00:33:03.735Z,23.4
2018-09-09T00:34:09.445Z,23.4
2018-09-09T00:35:14.889Z,23.4
2018-09-09T00:36:20.391Z,23.4
2018-09-09T00:37:40.176Z,23.4
2018-09-09T00:38:45.321Z,23.4
2018-09-09T00:39:51.002Z,23.4
2018-09-09T00:40:56.195Z,23.4
2018-09-09T00:42:01.354Z,23.4
2018-09-09T00:43:06.030Z,23.4
2018-09-09T00:44:11.186Z,23.4
2018-09-09T00:45:16.617Z,23.4
2018-09-09T00:46:22.392Z,23.4
2018-09-09T00:47:27.871Z,23.3
2018-09-09T00:48:33.974Z,23.4
2018-09-09T00:49:39.455Z,23.4
2018-09-09T00:50:44.356Z,23.4
2018-09-09T00:51:50.146Z,23.4
2018-09-09T00:52:55.018Z,23.4
2018-09-09T00:53:59.939Z,23.4
2018-09-09T00:55:05.430Z,23.4
2018-09-09T00:56:10.606Z,23.3
2018-09-09T00:57:15.758Z,23.4
2018-09-09T00:58:21.578Z,23.4
2018-09-09T00:59:27.006Z,23.3
2018-09-09T01:00:32.906Z,23.3
2018-09-09T01:01:38.491Z,23.4
2018-09-09T01:02:43.922Z,23.4
2018-09-09T01:03:49.420Z,23.3
2018-09-09T01:04:54.644Z,23.3
2018-09-09T01:05:59.617Z,23.3
2018-09-09T01:07:05.039Z,23.4
2018-09-09T01:08:10.288Z,23.3
2018-09-09T01:09:15.251Z,23.3
2018-09-09T01:10:20.947Z,23.4
2018-09-09T01:11:26.436Z,23.4
2018-09-09T01:12:31.996Z,23.3
2018-09-09T01:13:37.444Z,23.3
2018-09-09T01:14:42.695Z,23.3
2018-09-09T01:15:48.102Z,23.4
2018-09-09T01:16:53.246Z,23.4
2018-09-09T01:17:58.399Z,23.4
2018-09-09T01:19:04.016Z,23.3
2018-09-09T01:20:08.902Z,23.3
2018-09-09T01:21:13.807Z,23.4
2018-09-09T01:22:19.346Z,23.3
2018-09-09T01:23:24.259Z,23.3
2018-09-09T01:24:30.260Z,23.3
2018-09-09T01:25:35.413Z,23.3
2018-09-09T01:26:40.562Z,23.3
2018-09-09T01:27:46.134Z,23.3
2018-09-09T01:28:50.999Z,23.3
2018-09-09T01:29:56.473Z,23.3
2018-09-09T01:31:01.886Z,23.3
2018-09-09T01:32:07.044Z,23.3
2018-09-09T01:33:12.225Z,23.3
2018-09-09T01:34:18.093Z,23.3
2018-09-09T01:35:23.668Z,23.3
2018-09-09T01:36:29.090Z,23.3
2018-09-09T01:37:34.531Z,23.3
2018-09-09T01:38:39.975Z,23.3
2018-09-09T01:39:45.686Z,23.3
2018-09-09T01:40:50.908Z,23.3
2018-09-09T01:41:55.533Z,23.3
2018-09-09T01:43:00.955Z,23.3
2018-09-09T01:44:06.201Z,23.3
2018-09-09T01:45:11.377Z,23.3
2018-09-09T01:46:16.620Z,23.3
2018-09-09T01:47:22.104Z,23.3
2018-09-09T01:48:27.819Z,23.3
2018-09-09T01:49:33.321Z,23.3
2018-09-09T01:50:38.816Z,23.3
2018-09-09T01:51:44.612Z,23.3
2018-09-09T01:52:49.203Z,23.3
2018-09-09T01:53:54.385Z,23.3
2018-09-09T01:55:00.114Z,23.3
2018-09-09T01:56:05.257Z,23.3
2018-09-09T01:57:10.433Z,23.3
2018-09-09T01:58:15.550Z,23.3
2018-09-09T01:59:20.735Z,23.3
2018-09-09T02:00:26.571Z,23.3
2018-09-09T02:01:31.928Z,23.3
2018-09-09T02:02:37.358Z,23.3
2018-09-09T02:03:43.159Z,23.3
2018-09-09T02:04:48.043Z,23.3
2018-09-09T02:05:53.108Z,23.3
2018-09-09T02:06:57.687Z,23.3
2018-09-09T02:08:02.073Z,23.3
2018-09-09T02:09:07.292Z,23.3
2018-09-09T02:10:12.684Z,23.3
2018-09-09T02:11:18.159Z,23.3
2018-09-09T02:12:23.338Z,23.3
2018-09-09T02:13:43.387Z,23.3
2018-09-09T02:14:48.832Z,23.3
2018-09-09T02:15:54.693Z,23.3
2018-09-09T02:16:59.275Z,23.3
2018-09-09T02:18:04.730Z,23.3
2018-09-09T02:19:10.161Z,23.3
2018-09-09T02:20:15.593Z,23.3
2018-09-09T02:21:21.046Z,23.3
2018-09-09T02:22:26.910Z,23.3
2018-09-09T02:23:32.385Z,23.3
2018-09-09T02:24:37.897Z,23.3
2018-09-09T02:25:43.395Z,23.3
2018-09-09T02:26:48.814Z,23.3
2018-09-09T02:27:54.315Z,23.3
2018-09-09T02:28:59.761Z,23.3
2018-09-09T02:30:04.901Z,23.3
2018-09-09T02:31:10.682Z,23.3
2018-09-09T02:32:15.917Z,23.3
2018-09-09T02:33:21.089Z,23.3
2018-09-09T02:34:26.425Z,23.3
2018-09-09T02:35:31.585Z,23.3
2018-09-09T02:36:36.840Z,23.3
2018-09-09T02:37:41.991Z,23.3
2018-09-09T02:38:47.422Z,23.3
2018-09-09T02:39:53.152Z,23.3
2018-09-09T02:40:58.094Z,23.3
2018-09-09T02:42:03.322Z,23.3
2018-09-09T02:43:08.724Z,23.3
2018-09-09T02:44:13.607Z,23.3
2018-09-09T02:45:18.192Z,23.3
2018-09-09T02:46:23.757Z,23.3
2018-09-09T02:47:28.630Z,23.3
2018-09-09T02:48:33.473Z,23.3
2018-09-09T02:49:38.705Z,23.3
2018-09-09T02:50:44.232Z,23.3
2018-09-09T02:51:49.774Z,23.3
2018-09-09T02:52:54.808Z,23.3
2018-09-09T02:53:59.978Z,23.3
2018-09-09T02:55:05.227Z,23.3
2018-09-09T02:56:10.731Z,23.3
2018-09-09T02:57:16.167Z,23.3
2018-09-09T02:58:21.844Z,23.3
2018-09-09T02:59:27.284Z,23.3
2018-09-09T03:00:33.027Z,23.3
2018-09-09T03:01:38.179Z,23.3
2018-09-09T03:02:43.122Z,23.3
2018-09-09T03:03:48.684Z,23.3
2018-09-09T03:04:54.119Z,23.3
2018-09-09T03:05:59.347Z,23.3
2018-09-09T03:07:04.630Z,23.3
2018-09-09T03:08:09.489Z,23.3
2018-09-09T03:09:14.946Z,23.3
2018-09-09T03:10:20.723Z,23.3
2018-09-09T03:11:25.886Z,23.3
2018-09-09T03:12:31.533Z,23.3
2018-09-09T03:13:36.977Z,23.3
2018-09-09T03:14:42.119Z,23.3
2018-09-09T03:15:48.045Z,23.3
2018-09-09T03:16:52.897Z,23.3
2018-09-09T03:17:58.046Z,23.3
2018-09-09T03:19:03.332Z,23.3
2018-09-09T03:20:08.822Z,23.3
2018-09-09T03:21:13.712Z,23.3
2018-09-09T03:22:18.855Z,23.3
2018-09-09T03:23:24.080Z,23.3
2018-09-09T03:24:29.772Z,23.3
2018-09-09T03:25:34.974Z,23.3
2018-09-09T03:26:39.830Z,23.3
2018-09-09T03:27:45.333Z,23.3
2018-09-09T03:28:50.907Z,23.3
2018-09-09T03:29:56.001Z,23.3
2018-09-09T03:31:01.687Z,23.3
2018-09-09T03:32:06.619Z,23.3
2018-09-09T03:33:11.778Z,23.3
2018-09-09T03:34:17.002Z,23.3
2018-09-09T03:35:22.262Z,23.3
2018-09-09T03:36:27.829Z,23.3
2018-09-09T03:37:33.049Z,23.3
2018-09-09T03:38:38.293Z,23.3
2018-09-09T03:39:43.852Z,23.3
2018-09-09T03:40:48.787Z,23.3
2018-09-09T03:41:53.963Z,23.3
2018-09-09T03:42:59.642Z,23.3
2018-09-09T03:44:04.787Z,23.3
2018-09-09T03:45:09.718Z,23.3
2018-09-09T03:46:14.842Z,23.3
2018-09-09T03:47:20.308Z,23.3
2018-09-09T03:48:26.168Z,23.3
2018-09-09T03:49:31.031Z,23.3
2018-09-09T03:50:36.536Z,23.3
2018-09-09T03:51:41.792Z,23.3
2018-09-09T03:52:46.377Z,23.3
2018-09-09T03:53:51.244Z,23.3
2018-09-09T03:54:56.648Z,23.3
2018-09-09T03:56:01.804Z,23.3
2018-09-09T03:57:06.189Z,23.3
2018-09-09T03:58:11.887Z,23.3
2018-09-09T03:59:16.789Z,23.3
2018-09-09T04:00:22.234Z,23.3
2018-09-09T04:01:42.437Z,23.3
2018-09-09T04:02:47.295Z,23.3
2018-09-09T04:03:52.415Z,23.3
2018-09-09T04:04:57.702Z,23.3
2018-09-09T04:06:02.846Z,23.3
2018-09-09T04:07:08.096Z,23.3
2018-09-09T04:08:13.285Z,23.3
2018-09-09T04:09:17.936Z,23.3
2018-09-09T04:10:23.684Z,23.3
2018-09-09T04:11:28.643Z,23.3
2018-09-09T04:12:33.777Z,23.3
2018-09-09T04:13:39.236Z,23.3
2018-09-09T04:14:44.725Z,23.3
2018-09-09T04:15:50.509Z,23.3
2018-09-09T04:16:55.938Z,23.3
2018-09-09T04:18:01.479Z,23.3
2018-09-09T04:19:06.803Z,23.3
2018-09-09T04:20:12.250Z,23.3
2018-09-09T04:21:17.404Z,23.3
2018-09-09T04:22:22.893Z,23.3
2018-09-09T04:23:27.765Z,23.3
2018-09-09T04:24:33.159Z,23.3
2018-09-09T04:25:38.015Z,23.3
2018-09-09T04:26:43.307Z,23.3
2018-09-09T04:27:49.200Z,23.3
2018-09-09T04:28:54.632Z,23.3
2018-09-09T04:30:00.105Z,23.3
2018-09-09T04:31:05.532Z,23.3
2018-09-09T04:32:10.673Z,23.3
2018-09-09T04:33:15.848Z,23.3
2018-09-09T04:34:21.059Z,23.3
2018-09-09T04:35:26.485Z,23.3
2018-09-09T04:36:32.209Z,23.3
2018-09-09T04:37:36.781Z,23.3
2018-09-09T04:38:41.394Z,23.3
2018-09-09T04:39:47.062Z,23.3
2018-09-09T04:40:52.596Z,23.3
2018-09-09T04:41:58.052Z,23.3
2018-09-09T04:43:03.842Z,23.3
2018-09-09T04:44:09.285Z,23.3
2018-09-09T04:45:14.717Z,23.3
2018-09-09T04:46:20.441Z,23.3
2018-09-09T04:47:25.917Z,23.2
2018-09-09T04:48:31.443Z,23.3
2018-09-09T04:49:36.640Z,23.3
2018-09-09T04:50:42.071Z,23.3
2018-09-09T04:51:47.869Z,23.3
2018-09-09T04:52:53.043Z,23.3
2018-09-09T04:53:58.195Z,23.3
2018-09-09T04:55:03.724Z,23.3
2018-09-09T04:56:08.314Z,23.3
2018-09-09T04:57:13.471Z,23.3
2018-09-09T04:58:18.694Z,23.3
2018-09-09T04:59:24.124Z,23.3
2018-09-09T05:00:29.019Z,23.3
2018-09-09T05:01:33.918Z,23.3
2018-09-09T05:02:39.096Z,23.3
2018-09-09T05:03:44.496Z,23.3
2018-09-09T05:04:49.928Z,23.3
2018-09-09T05:05:55.079Z,23.2
2018-09-09T05:07:00.219Z,23.3
2018-09-09T05:08:05.384Z,23.3
2018-09-09T05:09:10.589Z,23.3
2018-09-09T05:10:15.996Z,23.3
2018-09-09T05:11:21.414Z,23.3
2018-09-09T05:12:26.308Z,23.3
2018-09-09T05:13:31.459Z,23.3
2018-09-09T05:14:36.309Z,23.3
2018-09-09T05:15:42.002Z,23.3
2018-09-09T05:16:47.440Z,23.3
2018-09-09T05:17:52.305Z,23.3
2018-09-09T05:18:58.179Z,23.3
2018-09-09T05:20:02.809Z,23.3
2018-09-09T05:21:07.958Z,23.3
2018-09-09T05:22:12.827Z,23.3
2018-09-09T05:23:17.739Z,23.3
2018-09-09T05:24:22.885Z,23.3
2018-09-09T05:25:42.827Z,23.3
2018-09-09T05:26:48.261Z,23.3
2018-09-09T05:27:53.946Z,23.3
2018-09-09T05:28:59.152Z,23.3
2018-09-09T05:30:04.310Z,23.3
2018-09-09T05:31:09.548Z,23.3
2018-09-09T05:32:14.145Z,23.3
2018-09-09T05:33:18.782Z,23.3
2018-09-09T05:34:24.603Z,23.3
2018-09-09T05:35:30.098Z,23.3
2018-09-09T05:36:35.379Z,23.3
2018-09-09T05:37:40.535Z,23.3
2018-09-09T05:38:46.079Z,23.3
2018-09-09T05:39:51.391Z,23.3
2018-09-09T05:40:56.582Z,23.3
2018-09-09T05:42:01.596Z,23.3
2018-09-09T05:43:06.286Z,23.3
2018-09-09T05:44:11.440Z,23.3
2018-09-09T05:45:16.622Z,23.3
2018-09-09T05:46:22.073Z,23.3
2018-09-09T05:47:26.652Z,23.3
2018-09-09T05:48:32.229Z,23.3
2018-09-09T05:49:37.466Z,23.3
2018-09-09T05:50:42.621Z,23.3
2018-09-09T05:51:48.435Z,23.3
2018-09-09T05:52:53.612Z,23.3
2018-09-09T05:53:59.091Z,23.3
2018-09-09T05:55:04.832Z,23.3
2018-09-09T05:56:10.319Z,23.3
2018-09-09T05:57:15.183Z,23.3
2018-09-09T05:58:20.723Z,23.3
2018-09-09T05:59:26.221Z,23.3
2018-09-09T06:00:31.268Z,23.3
2018-09-09T06:01:36.693Z,23.3
2018-09-09T06:02:42.166Z,23.3
2018-09-09T06:03:47.666Z,23.3
2018-09-09T06:04:53.147Z,23.3
2018-09-09T06:05:58.393Z,23.3
2018-09-09T06:07:03.496Z,23.3
2018-09-09T06:08:08.645Z,23.3
2018-09-09T06:09:13.561Z,23.3
2018-09-09T06:10:19.239Z,23.3
2018-09-09T06:11:24.403Z,23.3
2018-09-09T06:12:30.384Z,23.3
2018-09-09T06:13:35.520Z,23.3
2018-09-09T06:14:40.475Z,23.3
2018-09-09T06:15:45.534Z,23.3
2018-09-09T06:16:50.739Z,23.3
2018-09-09T06:17:55.895Z,23.3
2018-09-09T06:19:01.349Z,23.3
2018-09-09T06:20:06.215Z,23.3
2018-09-09T06:21:11.364Z,23.3
2018-09-09T06:22:16.284Z,23.3
2018-09-09T06:23:21.514Z,23.3
2018-09-09T06:24:27.281Z,23.3
2018-09-09T06:25:32.425Z,23.3
2018-09-09T06:26:37.642Z,23.3
2018-09-09T06:27:42.753Z,23.3
2018-09-09T06:28:48.198Z,23.3
2018-09-09T06:29:53.664Z,23.3
2018-09-09T06:30:59.372Z,23.3
2018-09-09T06:32:04.238Z,23.3
2018-09-09T06:33:09.490Z,23.3
2018-09-09T06:34:15.206Z,23.3
2018-09-09T06:35:20.663Z,23.3
2018-09-09T06:36:26.651Z,23.3
2018-09-09T06:37:31.556Z,23.3
2018-09-09T06:38:36.724Z,23.3
2018-09-09T06:39:41.865Z,23.3
2018-09-09T06:40:47.042Z,23.3
2018-09-09T06:41:52.248Z,23.3
2018-09-09T06:42:57.501Z,23.3
2018-09-09T06:44:02.682Z,23.3
2018-09-09T06:45:07.567Z,23.3
2018-09-09T06:46:13.341Z,23.3
2018-09-09T06:47:18.480Z,23.3
2018-09-09T06:48:23.347Z,23.3
2018-09-09T06:49:43.481Z,23.3
2018-09-09T06:50:48.910Z,23.3
2018-09-09T06:51:54.508Z,23.3
2018-09-09T06:52:59.938Z,23.3
2018-09-09T06:54:04.831Z,23.3
2018-09-09T06:55:10.204Z,23.3
2018-09-09T06:56:15.638Z,23.3
2018-09-09T06:57:21.069Z,23.3
2018-09-09T06:58:26.930Z,23.3
2018-09-09T06:59:31.795Z,23.3
2018-09-09T07:00:36.934Z,23.3
2018-09-09T07:01:42.330Z,23.3
2018-09-09T07:02:47.232Z,23.3
2018-09-09T07:03:52.773Z,23.3
2018-09-09T07:04:58.255Z,23.3
2018-09-09T07:06:03.415Z,23.3
2018-09-09T07:07:09.255Z,23.3
2018-09-09T07:08:14.169Z,23.3
2018-09-09T07:09:18.751Z,23.3
2018-09-09T07:10:24.217Z,23.3
2018-09-09T07:11:29.508Z,23.3
2018-09-09T07:12:36.159Z,23.3
2018-09-09T07:13:41.371Z,23.3
2018-09-09T07:14:46.523Z,23.3
2018-09-09T07:15:52.200Z,23.3
2018-09-09T07:16:57.352Z,23.3
2018-09-09T07:18:02.714Z,23.3
2018-09-09T07:19:08.211Z,23.3
2018-09-09T07:20:13.756Z,23.4
2018-09-09T07:21:18.896Z,23.4
2018-09-09T07:22:24.294Z,23.4
2018-09-09T07:23:29.490Z,23.4
2018-09-09T07:24:35.320Z,23.3
2018-09-09T07:25:40.523Z,23.4
2018-09-09T07:26:45.760Z,23.4
2018-09-09T07:27:51.153Z,23.4
2018-09-09T07:28:56.307Z,23.4
2018-09-09T07:30:00.907Z,23.4
2018-09-09T07:31:06.283Z,23.4
2018-09-09T07:32:12.058Z,23.4
2018-09-09T07:33:17.201Z,23.4
2018-09-09T07:34:22.978Z,23.4
2018-09-09T07:35:28.160Z,23.4
2018-09-09T07:36:33.412Z,23.4
2018-09-09T07:37:38.555Z,23.4
2018-09-09T07:38:44.018Z,23.4
2018-09-09T07:39:49.984Z,23.4
2018-09-09T07:40:55.127Z,23.4
2018-09-09T07:42:00.363Z,23.4
2018-09-09T07:43:05.327Z,23.4
2018-09-09T07:44:10.196Z,23.4
2018-09-09T07:45:15.386Z,23.4
2018-09-09T07:46:20.683Z,23.4
2018-09-09T07:47:25.734Z,23.4
2018-09-09T07:48:31.105Z,23.4
2018-09-09T07:49:36.544Z,23.4
2018-09-09T07:50:41.785Z,23.4
2018-09-09T07:51:47.818Z,23.4
2018-09-09T07:52:52.960Z,23.4
2018-09-09T07:53:57.839Z,23.4
2018-09-09T07:55:03.552Z,23.4
2018-09-09T07:56:09.055Z,23.4
2018-09-09T07:57:13.927Z,23.4
2018-09-09T07:58:19.045Z,23.4
2018-09-09T07:59:24.473Z,23.4
2018-09-09T08:00:29.900Z,23.4
2018-09-09T08:01:35.318Z,23.4
2018-09-09T08:02:40.764Z,23.5
2018-09-09T08:03:46.604Z,23.5
2018-09-09T08:04:51.767Z,23.5
2018-09-09T08:05:56.988Z,23.5
2018-09-09T08:07:02.349Z,23.5
2018-09-09T08:08:07.237Z,23.5
2018-09-09T08:09:12.723Z,23.5
2018-09-09T08:10:17.987Z,23.5
2018-09-09T08:11:23.136Z,23.5
2018-09-09T08:12:28.117Z,23.5
2018-09-09T08:13:33.328Z,23.6
2018-09-09T08:14:38.764Z,23.6
2018-09-09T08:15:44.654Z,23.6
2018-09-09T08:16:50.105Z,23.5
2018-09-09T08:17:55.344Z,23.5
2018-09-09T08:19:00.559Z,23.5
2018-09-09T08:20:05.726Z,23.5
2018-09-09T08:21:10.877Z,23.5
2018-09-09T08:22:16.005Z,23.5
2018-09-09T08:23:21.171Z,23.5
2018-09-09T08:24:26.205Z,23.5
2018-09-09T08:25:31.190Z,23.6
2018-09-09T08:26:36.346Z,23.6
2018-09-09T08:27:41.739Z,23.6
2018-09-09T08:28:46.736Z,23.6
2018-09-09T08:29:51.597Z,23.6
2018-09-09T08:30:56.426Z,23.6
2018-09-09T08:32:01.598Z,23.6
2018-09-09T08:33:05.915Z,23.6
2018-09-09T08:34:11.364Z,23.6
2018-09-09T08:35:16.240Z,23.6
2018-09-09T08:36:21.431Z,23.6
2018-09-09T08:37:26.878Z,23.6
2018-09-09T08:38:32.030Z,23.6
2018-09-09T08:39:37.650Z,23.6
2018-09-09T08:40:42.802Z,23.6
2018-09-09T08:41:47.942Z,23.6
2018-09-09T08:42:53.078Z,23.6
2018-09-09T08:43:57.981Z,23.6
2018-09-09T08:45:03.195Z,23.6
2018-09-09T08:46:08.648Z,23.6
2018-09-09T08:47:14.136Z,23.7
2018-09-09T08:48:19.625Z,23.7
2018-09-09T08:49:25.169Z,23.7
2018-09-09T08:50:30.093Z,23.7
2018-09-09T08:51:35.646Z,23.7
2018-09-09T08:52:40.794Z,23.7
2018-09-09T08:53:46.015Z,23.7
2018-09-09T08:54:51.905Z,23.7
2018-09-09T08:55:56.789Z,23.7
2018-09-09T08:57:01.650Z,23.7
2018-09-09T08:58:07.017Z,23.7
2018-09-09T08:59:12.178Z,23.7
2018-09-09T09:00:17.352Z,23.7
2018-09-09T09:01:23.028Z,23.7
2018-09-09T09:02:28.206Z,23.7
2018-09-09T09:03:33.607Z,23.7
2018-09-09T09:04:38.773Z,23.8
2018-09-09T09:05:43.934Z,23.7
2018-09-09T09:06:49.763Z,23.7
2018-09-09T09:07:55.352Z,23.7
2018-09-09T09:09:00.845Z,23.8
2018-09-09T09:10:05.678Z,23.7
2018-09-09T09:11:10.828Z,23.7
2018-09-09T09:12:15.987Z,23.8
2018-09-09T09:13:21.392Z,23.8
2018-09-09T09:14:26.563Z,23.8
2018-09-09T09:15:32.322Z,23.8
2018-09-09T09:16:37.393Z,23.8
2018-09-09T09:17:42.875Z,23.8
2018-09-09T09:18:48.424Z,23.8
2018-09-09T09:19:53.581Z,23.8
2018-09-09T09:20:59.035Z,23.8
2018-09-09T09:22:04.646Z,23.8
2018-09-09T09:23:09.560Z,23.8
2018-09-09T09:24:14.710Z,23.8
2018-09-09T09:25:20.413Z,23.8
2018-09-09T09:26:25.563Z,23.8
2018-09-09T09:27:30.882Z,23.8
2018-09-09T09:28:35.872Z,23.8
2018-09-09T09:29:40.464Z,23.9
2018-09-09T09:30:46.317Z,23.8
2018-09-09T09:31:51.797Z,23.9
2018-09-09T09:32:57.231Z,23.9
2018-09-09T09:34:02.919Z,23.8
2018-09-09T09:35:08.073Z,23.8
2018-09-09T09:36:12.951Z,23.9
2018-09-09T09:37:18.619Z,23.9
2018-09-09T09:38:23.511Z,23.9
2018-09-09T09:39:29.217Z,23.9
2018-09-09T09:40:34.815Z,23.9
2018-09-09T09:41:39.689Z,23.9
2018-09-09T09:42:45.254Z,23.9
2018-09-09T09:43:50.416Z,23.9
2018-09-09T09:44:55.704Z,23.9
2018-09-09T09:46:00.677Z,23.9
2018-09-09T09:47:04.982Z,23.9
2018-09-09T09:48:10.018Z,23.9
2018-09-09T09:49:15.482Z,23.9
2018-09-09T09:50:20.663Z,23.9
2018-09-09T09:51:26.575Z,23.9
2018-09-09T09:52:31.488Z,23.9
2018-09-09T09:53:36.995Z,23.9
2018-09-09T09:54:42.937Z,23.9
2018-09-09T09:55:47.812Z,23.9
2018-09-09T09:56:52.680Z,23.9
2018-09-09T09:57:58.299Z,23.9
2018-09-09T09:59:03.767Z,23.9
2018-09-09T10:00:08.927Z,23.9
2018-09-09T10:01:13.987Z,23.9
2018-09-09T10:02:19.443Z,23.9
2018-09-09T10:03:24.906Z,23.9
2018-09-09T10:04:31.196Z,24
2018-09-09T10:05:35.777Z,23.9
2018-09-09T10:06:41.456Z,23.9
2018-09-09T10:07:46.394Z,23.9
2018-09-09T10:08:51.539Z,24
2018-09-09T10:09:57.420Z,24
2018-09-09T10:11:02.602Z,24
2018-09-09T10:12:07.758Z,24
2018-09-09T10:13:13.239Z,24
2018-09-09T10:14:18.390Z,24
2018-09-09T10:15:23.327Z,24
2018-09-09T10:16:43.106Z,24
2018-09-09T10:17:48.279Z,24
2018-09-09T10:18:54.100Z,24
2018-09-09T10:19:58.974Z,24
2018-09-09T10:21:03.843Z,24
2018-09-09T10:22:08.909Z,24
2018-09-09T10:23:14.044Z,24
2018-09-09T10:24:18.639Z,24
2018-09-09T10:25:23.557Z,24
2018-09-09T10:26:27.953Z,24
2018-09-09T10:27:33.696Z,24
2018-09-09T10:28:38.881Z,24
2018-09-09T10:29:43.793Z,24
2018-09-09T10:30:49.475Z,24
2018-09-09T10:31:54.442Z,24
2018-09-09T10:32:59.896Z,24
2018-09-09T10:34:04.449Z,24
2018-09-09T10:35:09.886Z,24
2018-09-09T10:36:15.122Z,24
2018-09-09T10:37:20.229Z,24
2018-09-09T10:38:25.658Z,24
2018-09-09T10:39:31.627Z,24
2018-09-09T10:40:37.057Z,24
2018-09-09T10:41:42.224Z,24
2018-09-09T10:42:47.906Z,24.1
2018-09-09T10:43:53.084Z,24.1
2018-09-09T10:44:58.294Z,24.1
2018-09-09T10:46:04.007Z,24.1
2018-09-09T10:47:09.914Z,24.1
2018-09-09T10:48:15.734Z,24.1
2018-09-09T10:49:21.545Z,24.1
2018-09-09T10:50:26.984Z,24.1
2018-09-09T10:51:32.763Z,24.1
2018-09-09T10:52:37.937Z,24.1
2018-09-09T10:53:42.801Z,24.1
2018-09-09T10:54:48.478Z,24.1
2018-09-09T10:55:53.929Z,24.1
2018-09-09T10:56:58.547Z,24.1
2018-09-09T10:58:03.939Z,24.1
2018-09-09T10:59:08.881Z,24.1
2018-09-09T11:00:13.542Z,24.1
2018-09-09T11:01:19.041Z,24.1
2018-09-09T11:02:23.911Z,24.1
2018-09-09T11:03:29.420Z,24.1
2018-09-09T11:04:34.600Z,24.1
2018-09-09T11:05:39.458Z,24.1
2018-09-09T11:06:44.718Z,24.1
2018-09-09T11:07:50.246Z,24.1
2018-09-09T11:08:55.404Z,24.1
2018-09-09T11:10:01.171Z,24.1
2018-09-09T11:11:06.040Z,24.1
2018-09-09T11:12:11.215Z,24.1
2018-09-09T11:13:17.087Z,24.2
2018-09-09T11:14:21.955Z,24.2
2018-09-09T11:15:27.234Z,24.2
2018-09-09T11:16:32.669Z,24.2
2018-09-09T11:17:37.238Z,24.2
2018-09-09T11:18:42.642Z,24.2
2018-09-09T11:19:48.086Z,24.2
2018-09-09T11:20:53.245Z,24.2
2018-09-09T11:21:59.090Z,24.2
2018-09-09T11:23:04.406Z,24.2
2018-09-09T11:24:09.341Z,24.2
2018-09-09T11:25:15.618Z,24.2
2018-09-09T11:26:21.096Z,24.2
2018-09-09T11:27:26.664Z,24.2
2018-09-09T11:28:31.900Z,24.2
2018-09-09T11:29:36.754Z,24.2
2018-09-09T11:30:41.926Z,24.2
2018-09-09T11:31:47.385Z,24.2
2018-09-09T11:32:52.009Z,24.2
2018-09-09T11:33:57.653Z,24.2
2018-09-09T11:35:01.792Z,24.2
2018-09-09T11:36:06.423Z,24.3
2018-09-09T11:37:12.139Z,24.3
2018-09-09T11:38:17.595Z,24.3
2018-09-09T11:39:23.054Z,24.3
2018-09-09T11:40:42.509Z,24.3
2018-09-09T11:41:48.146Z,24.3
2018-09-09T11:42:53.544Z,24.3
2018-09-09T11:43:58.754Z,24.3
2018-09-09T11:45:03.670Z,24.3
2018-09-09T11:46:09.232Z,24.3
2018-09-09T11:47:13.540Z,24.3
2018-09-09T11:48:18.789Z,24.3
2018-09-09T11:49:24.228Z,24.3
2018-09-09T11:50:28.901Z,24.3
2018-09-09T11:51:34.761Z,24.3
2018-09-09T11:52:39.917Z,24.3
2018-09-09T11:53:45.353Z,24.3
2018-09-09T11:54:50.646Z,24.3
2018-09-09T11:55:56.109Z,24.3
2018-09-09T11:57:01.535Z,24.3
2018-09-09T11:58:06.876Z,24.3
2018-09-09T11:59:12.384Z,24.3
2018-09-09T12:00:17.264Z,24.3
2018-09-09T12:01:23.040Z,24.3
2018-09-09T12:02:28.254Z,24.3
2018-09-09T12:03:33.539Z,24.3
2018-09-09T12:04:38.737Z,24.3
2018-09-09T12:05:44.150Z,24.3
2018-09-09T12:06:49.832Z,24.3
2018-09-09T12:07:55.308Z,24.3
2018-09-09T12:09:00.794Z,24.3
2018-09-09T12:10:05.492Z,24.3
2018-09-09T12:11:10.398Z,24.3
2018-09-09T12:12:15.767Z,24.3
2018-09-09T12:13:20.584Z,24.3
2018-09-09T12:14:25.760Z,24.3
2018-09-09T12:15:30.773Z,24.3
2018-09-09T12:16:35.693Z,24.3
2018-09-09T12:17:41.127Z,24.3
2018-09-09T12:18:46.907Z,24.3
2018-09-09T12:19:51.783Z,24.3
2018-09-09T12:20:56.927Z,24.3
2018-09-09T12:22:02.421Z,24.4
2018-09-09T12:23:07.622Z,24.4
2018-09-09T12:24:12.514Z,24.4
2018-09-09T12:25:18.376Z,24.4
2018-09-09T12:26:23.288Z,24.4
2018-09-09T12:27:28.973Z,24.4
2018-09-09T12:28:34.405Z,24.4
2018-09-09T12:29:39.640Z,24.4
2018-09-09T12:30:44.539Z,24.4
2018-09-09T12:31:49.683Z,24.4
2018-09-09T12:32:55.196Z,24.4
2018-09-09T12:34:00.763Z,24.4
2018-09-09T12:35:05.912Z,24.4
2018-09-09T12:36:11.120Z,24.4
2018-09-09T12:37:16.534Z,24.4
2018-09-09T12:38:21.981Z,24.4
2018-09-09T12:39:27.901Z,24.4
2018-09-09T12:40:33.226Z,24.4
2018-09-09T12:41:38.379Z,24.4
2018-09-09T12:42:43.912Z,24.4
2018-09-09T12:43:49.155Z,24.4
2018-09-09T12:44:54.310Z,24.4
2018-09-09T12:46:00.042Z,24.4
2018-09-09T12:47:04.980Z,24.4
2018-09-09T12:48:10.668Z,24.4
2018-09-09T12:49:14.981Z,24.4
2018-09-09T12:50:19.848Z,24.4
2018-09-09T12:52:44.930Z,24.4
2018-09-09T12:53:49.525Z,24.4
2018-09-09T12:54:54.519Z,24.5
2018-09-09T12:56:00.051Z,24.5
2018-09-09T12:57:04.642Z,24.4
2018-09-09T12:58:10.366Z,24.5
2018-09-09T12:59:15.878Z,24.4
2018-09-09T13:00:21.054Z,24.4
2018-09-09T13:01:26.979Z,24.5
2018-09-09T13:02:31.594Z,24.5
2018-09-09T13:03:37.443Z,24.4
2018-09-09T13:04:42.354Z,24.5
2018-09-09T13:05:47.218Z,24.5
2018-09-09T13:06:52.638Z,24.5
2018-09-09T13:07:57.791Z,24.5
2018-09-09T13:09:02.945Z,24.5
2018-09-09T13:10:08.876Z,24.5
2018-09-09T13:11:13.531Z,24.5
2018-09-09T13:12:18.699Z,24.5
2018-09-09T13:13:24.123Z,24.5
2018-09-09T13:14:29.548Z,24.5
2018-09-09T13:15:35.278Z,24.5
2018-09-09T13:16:40.259Z,24.5
2018-09-09T13:17:45.400Z,24.5
2018-09-09T13:18:50.987Z,24.5
2018-09-09T13:19:56.258Z,24.5
2018-09-09T13:21:01.397Z,24.5
2018-09-09T13:22:06.173Z,24.5
2018-09-09T13:23:11.048Z,24.5
2018-09-09T13:24:16.206Z,24.6
2018-09-09T13:25:21.618Z,24.5
2018-09-09T13:26:26.984Z,24.6
2018-09-09T13:27:32.715Z,24.6
2018-09-09T13:28:37.054Z,24.5
2018-09-09T13:29:42.491Z,24.5
2018-09-09T13:30:48.084Z,24.6
2018-09-09T13:31:53.547Z,24.6
2018-09-09T13:32:58.701Z,24.6
2018-09-09T13:34:04.500Z,24.6
2018-09-09T13:35:09.679Z,24.6
2018-09-09T13:36:14.549Z,24.6
2018-09-09T13:37:20.042Z,24.6
2018-09-09T13:38:24.979Z,24.6
2018-09-09T13:39:30.809Z,24.6
2018-09-09T13:40:36.041Z,24.6
2018-09-09T13:41:41.557Z,24.6
2018-09-09T13:42:46.992Z,24.6
2018-09-09T13:43:52.517Z,24.6
2018-09-09T13:44:57.396Z,24.6
2018-09-09T13:46:02.557Z,24.6
2018-09-09T13:47:07.433Z,24.6
2018-09-09T13:48:12.983Z,24.6
2018-09-09T13:49:18.946Z,24.6
2018-09-09T13:50:24.097Z,24.6
2018-09-09T13:51:30.202Z,24.6
2018-09-09T13:52:35.356Z,24.6
2018-09-09T13:53:40.223Z,24.6
2018-09-09T13:54:45.946Z,24.6
2018-09-09T13:55:51.466Z,24.6
2018-09-09T13:56:56.897Z,24.6
2018-09-09T13:58:02.363Z,24.6
2018-09-09T13:59:07.564Z,24.6
2018-09-09T14:00:12.718Z,24.6
2018-09-09T14:01:18.110Z,24.6
2018-09-09T14:02:22.709Z,24.6
2018-09-09T14:03:28.591Z,24.6
2018-09-09T14:04:33.243Z,24.6
2018-09-09T14:05:38.152Z,24.6
2018-09-09T14:06:43.772Z,24.6
2018-09-09T14:07:49.122Z,24.6
2018-09-09T14:08:54.294Z,24.6
2018-09-09T14:09:59.281Z,24.6
2018-09-09T14:11:04.734Z,24.6
2018-09-09T14:12:09.915Z,24.6
2018-09-09T14:13:15.339Z,24.7
2018-09-09T14:14:20.543Z,24.6
2018-09-09T14:15:26.240Z,24.7
2018-09-09T14:16:31.591Z,24.7
2018-09-09T14:17:36.773Z,24.7
2018-09-09T14:18:42.336Z,24.7
2018-09-09T14:19:47.809Z,24.7
2018-09-09T14:20:53.245Z,24.7
2018-09-09T14:21:58.369Z,24.7
2018-09-09T14:23:03.525Z,24.7
2018-09-09T14:24:08.810Z,24.7
2018-09-09T14:25:14.573Z,24.7
2018-09-09T14:26:19.725Z,24.7
2018-09-09T14:28:44.810Z,24.7
2018-09-09T14:29:49.966Z,24.7
2018-09-09T14:30:55.545Z,24.7
2018-09-09T14:32:00.697Z,24.7
2018-09-09T14:33:05.862Z,24.7
2018-09-09T14:34:11.600Z,24.7
2018-09-09T14:35:16.657Z,24.7